sensor_id;sensor_type;location;lat;lon;timestamp;P1;durP1;ratioP1;P2;durP2;ratioP2
57319;SDS011;43158;51.026;18.190;2022-09-09T00:02:21;161.80;;;31.90;;
57319;SDS011;43158;51.026;18.190;2022-09-09T00:04:59;80.20;;;30.00;;
57319;SDS011;43158;51.026;18.190;2022-09-09T00:23:39;68.30;;;25.70;;
57319;SDS011;43158;51.026;18.190;2022-09-09T00:26:09;68.60;;;26.00;;
57319;SDS011;43158;51.026;18.190;2022-09-09T00:28:48;79.90;;;26.50;;
57319;SDS011;43158;51.026;18.190;2022-09-09T00:31:20;86.80;;;27.90;;
57319;SDS011;43158;51.026;18.190;2022-09-09T00:33:49;93.80;;;26.70;;
57319;SDS011;43158;51.026;18.190;2022-09-09T00:36:18;82.00;;;28.00;;
57319;SDS011;43158;51.026;18.190;2022-09-09T00:38:49;98.80;;;26.90;;
57319;SDS011;43158;51.026;18.190;2022-09-09T00:43:46;47.70;;;28.00;;
57319;SDS011;43158;51.026;18.190;2022-09-09T00:52:08;46.00;;;30.20;;
57319;SDS011;43158;51.026;18.190;2022-09-09T00:54:58;64.00;;;31.40;;
57319;SDS011;43158;51.026;18.190;2022-09-09T00:57:40;78.50;;;32.10;;
57319;SDS011;43158;51.026;18.190;2022-09-09T01:02:57;112.00;;;31.40;;
57319;SDS011;43158;51.026;18.190;2022-09-09T01:07:58;93.70;;;28.30;;
57319;SDS011;43158;51.026;18.190;2022-09-09T01:10:35;167.10;;;32.00;;
57319;SDS011;43158;51.026;18.190;2022-09-09T01:13:24;120.80;;;30.20;;
57319;SDS011;43158;51.026;18.190;2022-09-09T01:16:00;94.60;;;30.10;;
57319;SDS011;43158;51.026;18.190;2022-09-09T01:18:31;103.00;;;29.80;;
57319;SDS011;43158;51.026;18.190;2022-09-09T01:21:04;85.60;;;30.00;;
57319;SDS011;43158;51.026;18.190;2022-09-09T01:24:05;127.20;;;27.60;;
57319;SDS011;43158;51.026;18.190;2022-09-09T01:26:37;118.30;;;33.80;;
57319;SDS011;43158;51.026;18.190;2022-09-09T01:29:08;118.00;;;29.30;;
57319;SDS011;43158;51.026;18.190;2022-09-09T01:31:51;144.20;;;29.00;;
57319;SDS011;43158;51.026;18.190;2022-09-09T01:34:19;93.50;;;29.90;;
57319;SDS011;43158;51.026;18.190;2022-09-09T01:36:49;122.30;;;36.40;;
57319;SDS011;43158;51.026;18.190;2022-09-09T01:39:25;60.40;;;35.00;;
57319;SDS011;43158;51.026;18.190;2022-09-09T01:41:53;72.80;;;33.50;;
57319;SDS011;43158;51.026;18.190;2022-09-09T01:44:19;96.50;;;37.80;;
57319;SDS011;43158;51.026;18.190;2022-09-09T01:46:45;77.00;;;39.60;;
57319;SDS011;43158;51.026;18.190;2022-09-09T01:49:12;86.70;;;41.60;;
57319;SDS011;43158;51.026;18.190;2022-09-09T01:51:38;91.60;;;45.40;;
57319;SDS011;43158;51.026;18.190;2022-09-09T01:54:07;86.60;;;44.50;;
57319;SDS011;43158;51.026;18.190;2022-09-09T01:56:43;82.70;;;45.80;;
57319;SDS011;43158;51.026;18.190;2022-09-09T01:59:23;112.30;;;50.70;;
57319;SDS011;43158;51.026;18.190;2022-09-09T02:02:09;96.50;;;48.30;;
57319;SDS011;43158;51.026;18.190;2022-09-09T02:09:47;88.80;;;49.70;;
57319;SDS011;43158;51.026;18.190;2022-09-09T02:12:18;96.30;;;48.30;;
57319;SDS011;43158;51.026;18.190;2022-09-09T02:14:55;158.50;;;46.40;;
57319;SDS011;43158;51.026;18.190;2022-09-09T02:17:32;126.40;;;48.80;;
57319;SDS011;43158;51.026;18.190;2022-09-09T02:20:03;132.30;;;47.20;;
57319;SDS011;43158;51.026;18.190;2022-09-09T02:22:33;177.00;;;53.70;;
57319;SDS011;43158;51.026;18.190;2022-09-09T02:25:00;196.60;;;48.90;;
57319;SDS011;43158;51.026;18.190;2022-09-09T02:27:27;241.10;;;49.80;;
57319;SDS011;43158;51.026;18.190;2022-09-09T02:29:53;241.20;;;50.30;;
57319;SDS011;43158;51.026;18.190;2022-09-09T02:32:22;215.20;;;52.70;;
57319;SDS011;43158;51.026;18.190;2022-09-09T02:34:56;159.80;;;51.80;;
57319;SDS011;43158;51.026;18.190;2022-09-09T02:37:27;202.90;;;56.70;;
57319;SDS011;43158;51.026;18.190;2022-09-09T02:39:58;169.80;;;53.00;;
57319;SDS011;43158;51.026;18.190;2022-09-09T02:42:24;174.00;;;53.70;;
57319;SDS011;43158;51.026;18.190;2022-09-09T02:44:50;132.20;;;52.40;;
57319;SDS011;43158;51.026;18.190;2022-09-09T02:47:23;3.70;;;3.20;;
57319;SDS011;43158;51.026;18.190;2022-09-09T02:50:12;4.00;;;3.10;;
57319;SDS011;43158;51.026;18.190;2022-09-09T02:58:08;6.70;;;2.80;;
57319;SDS011;43158;51.026;18.190;2022-09-09T03:00:37;4.90;;;4.50;;
57319;SDS011;43158;51.026;18.190;2022-09-09T03:03:05;2.10;;;2.00;;
57319;SDS011;43158;51.026;18.190;2022-09-09T03:05:34;1.90;;;1.90;;
57319;SDS011;43158;51.026;18.190;2022-09-09T03:08:01;4.10;;;3.80;;
57319;SDS011;43158;51.026;18.190;2022-09-09T03:10:28;4.70;;;2.60;;
57319;SDS011;43158;51.026;18.190;2022-09-09T03:12:54;4.80;;;2.30;;
57319;SDS011;43158;51.026;18.190;2022-09-09T03:15:20;105.30;;;40.10;;
57319;SDS011;43158;51.026;18.190;2022-09-09T03:17:47;93.90;;;38.60;;
57319;SDS011;43158;51.026;18.190;2022-09-09T03:20:13;100.00;;;40.80;;
57319;SDS011;43158;51.026;18.190;2022-09-09T03:22:39;163.60;;;43.40;;
57319;SDS011;43158;51.026;18.190;2022-09-09T03:25:06;82.10;;;38.40;;
57319;SDS011;43158;51.026;18.190;2022-09-09T03:27:32;129.90;;;43.40;;
57319;SDS011;43158;51.026;18.190;2022-09-09T03:29:58;185.50;;;51.00;;
57319;SDS011;43158;51.026;18.190;2022-09-09T03:32:24;142.00;;;57.40;;
57319;SDS011;43158;51.026;18.190;2022-09-09T03:34:51;86.10;;;53.90;;
57319;SDS011;43158;51.026;18.190;2022-09-09T03:37:18;93.90;;;54.40;;
57319;SDS011;43158;51.026;18.190;2022-09-09T03:39:45;104.50;;;61.20;;
57319;SDS011;43158;51.026;18.190;2022-09-09T03:42:14;122.40;;;67.20;;
57319;SDS011;43158;51.026;18.190;2022-09-09T03:44:44;112.00;;;65.80;;
57319;SDS011;43158;51.026;18.190;2022-09-09T03:47:16;109.50;;;64.00;;
57319;SDS011;43158;51.026;18.190;2022-09-09T03:49:43;106.70;;;62.70;;
57319;SDS011;43158;51.026;18.190;2022-09-09T03:52:10;121.10;;;68.90;;
57319;SDS011;43158;51.026;18.190;2022-09-09T03:54:37;114.60;;;66.20;;
57319;SDS011;43158;51.026;18.190;2022-09-09T03:57:03;113.20;;;66.50;;
57319;SDS011;43158;51.026;18.190;2022-09-09T03:59:30;105.90;;;63.10;;
57319;SDS011;43158;51.026;18.190;2022-09-09T04:01:56;108.10;;;61.80;;
57319;SDS011;43158;51.026;18.190;2022-09-09T04:04:24;104.30;;;62.30;;
57319;SDS011;43158;51.026;18.190;2022-09-09T04:06:52;101.90;;;64.90;;
57319;SDS011;43158;51.026;18.190;2022-09-09T04:09:19;125.00;;;67.50;;
57319;SDS011;43158;51.026;18.190;2022-09-09T04:11:45;120.40;;;67.30;;
57319;SDS011;43158;51.026;18.190;2022-09-09T04:14:12;122.10;;;64.40;;
57319;SDS011;43158;51.026;18.190;2022-09-09T04:16:38;103.00;;;62.20;;
57319;SDS011;43158;51.026;18.190;2022-09-09T04:19:08;119.60;;;65.80;;
57319;SDS011;43158;51.026;18.190;2022-09-09T04:21:38;115.80;;;68.70;;
57319;SDS011;43158;51.026;18.190;2022-09-09T04:24:06;105.70;;;64.80;;
57319;SDS011;43158;51.026;18.190;2022-09-09T04:26:33;119.00;;;65.40;;
57319;SDS011;43158;51.026;18.190;2022-09-09T04:29:00;115.70;;;67.10;;
57319;SDS011;43158;51.026;18.190;2022-09-09T04:31:26;120.90;;;68.10;;
57319;SDS011;43158;51.026;18.190;2022-09-09T04:33:53;129.80;;;68.70;;
57319;SDS011;43158;51.026;18.190;2022-09-09T04:36:19;120.90;;;75.10;;
57319;SDS011;43158;51.026;18.190;2022-09-09T04:38:45;118.30;;;74.00;;
57319;SDS011;43158;51.026;18.190;2022-09-09T04:41:14;114.00;;;70.80;;
57319;SDS011;43158;51.026;18.190;2022-09-09T04:44:01;124.40;;;74.10;;
57319;SDS011;43158;51.026;18.190;2022-09-09T04:46:35;129.50;;;72.20;;
57319;SDS011;43158;51.026;18.190;2022-09-09T04:49:01;121.10;;;73.30;;
57319;SDS011;43158;51.026;18.190;2022-09-09T04:51:27;124.50;;;74.20;;
57319;SDS011;43158;51.026;18.190;2022-09-09T04:53:53;125.00;;;72.80;;
57319;SDS011;43158;51.026;18.190;2022-09-09T04:56:20;116.60;;;69.60;;
57319;SDS011;43158;51.026;18.190;2022-09-09T04:58:46;115.20;;;72.40;;
57319;SDS011;43158;51.026;18.190;2022-09-09T05:01:13;119.60;;;73.70;;
57319;SDS011;43158;51.026;18.190;2022-09-09T05:03:44;125.50;;;70.60;;
57319;SDS011;43158;51.026;18.190;2022-09-09T05:06:12;114.60;;;71.00;;
57319;SDS011;43158;51.026;18.190;2022-09-09T05:08:40;111.10;;;72.70;;
57319;SDS011;43158;51.026;18.190;2022-09-09T05:14:14;119.00;;;72.70;;
57319;SDS011;43158;51.026;18.190;2022-09-09T05:16:40;117.00;;;67.50;;
57319;SDS011;43158;51.026;18.190;2022-09-09T05:19:07;97.30;;;67.20;;
57319;SDS011;43158;51.026;18.190;2022-09-09T05:21:33;90.00;;;65.80;;
57319;SDS011;43158;51.026;18.190;2022-09-09T05:24:00;118.00;;;69.00;;
57319;SDS011;43158;51.026;18.190;2022-09-09T05:26:26;100.20;;;72.20;;
57319;SDS011;43158;51.026;18.190;2022-09-09T05:28:54;101.50;;;70.30;;
57319;SDS011;43158;51.026;18.190;2022-09-09T05:31:21;104.70;;;70.40;;
57319;SDS011;43158;51.026;18.190;2022-09-09T05:33:48;102.50;;;68.80;;
57319;SDS011;43158;51.026;18.190;2022-09-09T05:36:15;94.50;;;68.90;;
57319;SDS011;43158;51.026;18.190;2022-09-09T05:38:43;95.30;;;69.50;;
57319;SDS011;43158;51.026;18.190;2022-09-09T05:41:11;103.90;;;65.20;;
57319;SDS011;43158;51.026;18.190;2022-09-09T05:43:38;102.00;;;66.10;;
57319;SDS011;43158;51.026;18.190;2022-09-09T05:46:05;113.40;;;71.30;;
57319;SDS011;43158;51.026;18.190;2022-09-09T05:48:39;96.30;;;66.90;;
57319;SDS011;43158;51.026;18.190;2022-09-09T05:51:08;99.00;;;68.90;;
57319;SDS011;43158;51.026;18.190;2022-09-09T05:53:37;108.20;;;66.10;;
57319;SDS011;43158;51.026;18.190;2022-09-09T05:56:05;102.30;;;70.30;;
57319;SDS011;43158;51.026;18.190;2022-09-09T05:58:36;88.40;;;65.80;;
57319;SDS011;43158;51.026;18.190;2022-09-09T06:03:35;82.30;;;61.20;;
57319;SDS011;43158;51.026;18.190;2022-09-09T06:06:04;79.80;;;63.00;;
57319;SDS011;43158;51.026;18.190;2022-09-09T06:11:03;82.80;;;63.30;;
57319;SDS011;43158;51.026;18.190;2022-09-09T06:13:32;79.70;;;58.90;;
57319;SDS011;43158;51.026;18.190;2022-09-09T06:15:59;86.40;;;58.00;;
57319;SDS011;43158;51.026;18.190;2022-09-09T06:18:25;76.10;;;61.00;;
57319;SDS011;43158;51.026;18.190;2022-09-09T06:20:59;84.90;;;59.30;;
57319;SDS011;43158;51.026;18.190;2022-09-09T06:23:26;80.70;;;63.20;;
57319;SDS011;43158;51.026;18.190;2022-09-09T06:26:27;84.30;;;60.80;;
57319;SDS011;43158;51.026;18.190;2022-09-09T06:28:48;80.70;;;57.90;;
57319;SDS011;43158;51.026;18.190;2022-09-09T06:31:16;85.20;;;55.20;;
57319;SDS011;43158;51.026;18.190;2022-09-09T06:33:47;76.30;;;54.80;;
57319;SDS011;43158;51.026;18.190;2022-09-09T06:36:18;71.10;;;56.30;;
57319;SDS011;43158;51.026;18.190;2022-09-09T06:38:46;80.20;;;60.40;;
57319;SDS011;43158;51.026;18.190;2022-09-09T06:41:14;70.10;;;56.20;;
57319;SDS011;43158;51.026;18.190;2022-09-09T06:43:41;70.40;;;56.80;;
57319;SDS011;43158;51.026;18.190;2022-09-09T06:46:11;88.50;;;59.70;;
57319;SDS011;43158;51.026;18.190;2022-09-09T06:48:40;71.10;;;58.10;;
57319;SDS011;43158;51.026;18.190;2022-09-09T06:51:08;74.20;;;57.80;;
57319;SDS011;43158;51.026;18.190;2022-09-09T06:53:40;75.00;;;58.00;;
57319;SDS011;43158;51.026;18.190;2022-09-09T06:58:37;68.30;;;54.80;;
57319;SDS011;43158;51.026;18.190;2022-09-09T07:01:08;71.40;;;56.80;;
57319;SDS011;43158;51.026;18.190;2022-09-09T07:03:38;67.80;;;55.30;;
57319;SDS011;43158;51.026;18.190;2022-09-09T07:06:08;63.70;;;54.20;;
57319;SDS011;43158;51.026;18.190;2022-09-09T07:08:40;63.10;;;54.60;;
57319;SDS011;43158;51.026;18.190;2022-09-09T07:11:09;61.00;;;53.50;;
57319;SDS011;43158;51.026;18.190;2022-09-09T07:13:36;62.60;;;52.90;;
57319;SDS011;43158;51.026;18.190;2022-09-09T07:16:06;68.20;;;52.30;;
57319;SDS011;43158;51.026;18.190;2022-09-09T07:18:35;57.80;;;51.50;;
57319;SDS011;43158;51.026;18.190;2022-09-09T07:21:02;55.50;;;49.50;;
57319;SDS011;43158;51.026;18.190;2022-09-09T07:23:29;57.40;;;49.10;;
57319;SDS011;43158;51.026;18.190;2022-09-09T07:25:57;58.30;;;50.00;;
57319;SDS011;43158;51.026;18.190;2022-09-09T07:28:23;50.50;;;45.20;;
57319;SDS011;43158;51.026;18.190;2022-09-09T07:30:58;54.40;;;48.80;;
57319;SDS011;43158;51.026;18.190;2022-09-09T07:33:26;56.90;;;45.70;;
57319;SDS011;43158;51.026;18.190;2022-09-09T07:35:53;53.20;;;47.40;;
57319;SDS011;43158;51.026;18.190;2022-09-09T07:38:20;53.90;;;48.20;;
57319;SDS011;43158;51.026;18.190;2022-09-09T07:40:46;46.50;;;41.50;;
57319;SDS011;43158;51.026;18.190;2022-09-09T07:43:13;43.00;;;39.00;;
57319;SDS011;43158;51.026;18.190;2022-09-09T07:45:39;43.80;;;39.50;;
57319;SDS011;43158;51.026;18.190;2022-09-09T07:48:07;43.10;;;38.70;;
57319;SDS011;43158;51.026;18.190;2022-09-09T07:50:35;42.30;;;38.00;;
57319;SDS011;43158;51.026;18.190;2022-09-09T07:53:02;39.50;;;35.60;;
57319;SDS011;43158;51.026;18.190;2022-09-09T07:55:30;36.00;;;32.60;;
57319;SDS011;43158;51.026;18.190;2022-09-09T07:57:57;40.20;;;36.00;;
57319;SDS011;43158;51.026;18.190;2022-09-09T08:00:24;47.30;;;34.70;;
57319;SDS011;43158;51.026;18.190;2022-09-09T08:02:51;62.90;;;37.10;;
57319;SDS011;43158;51.026;18.190;2022-09-09T08:05:19;40.90;;;32.60;;
57319;SDS011;43158;51.026;18.190;2022-09-09T08:07:48;36.20;;;32.80;;
57319;SDS011;43158;51.026;18.190;2022-09-09T08:10:18;35.70;;;32.20;;
57319;SDS011;43158;51.026;18.190;2022-09-09T08:12:44;35.80;;;32.40;;
57319;SDS011;43158;51.026;18.190;2022-09-09T08:15:11;34.30;;;30.90;;
57319;SDS011;43158;51.026;18.190;2022-09-09T08:17:38;33.70;;;29.70;;
57319;SDS011;43158;51.026;18.190;2022-09-09T08:20:04;31.90;;;28.60;;
57319;SDS011;43158;51.026;18.190;2022-09-09T08:22:31;38.40;;;28.50;;
57319;SDS011;43158;51.026;18.190;2022-09-09T08:24:57;30.50;;;27.80;;
57319;SDS011;43158;51.026;18.190;2022-09-09T08:27:24;33.60;;;28.40;;
57319;SDS011;43158;51.026;18.190;2022-09-09T08:29:51;28.80;;;26.40;;
57319;SDS011;43158;51.026;18.190;2022-09-09T08:32:17;28.70;;;26.00;;
57319;SDS011;43158;51.026;18.190;2022-09-09T08:34:45;31.70;;;28.40;;
57319;SDS011;43158;51.026;18.190;2022-09-09T08:37:11;30.80;;;28.30;;
57319;SDS011;43158;51.026;18.190;2022-09-09T08:39:39;32.90;;;29.90;;
57319;SDS011;43158;51.026;18.190;2022-09-09T08:42:09;30.70;;;28.10;;
57319;SDS011;43158;51.026;18.190;2022-09-09T08:47:48;32.20;;;29.40;;
57319;SDS011;43158;51.026;18.190;2022-09-09T08:50:30;27.10;;;24.80;;
57319;SDS011;43158;51.026;18.190;2022-09-09T08:53:16;24.30;;;22.00;;
57319;SDS011;43158;51.026;18.190;2022-09-09T08:56:14;24.90;;;22.60;;
57319;SDS011;43158;51.026;18.190;2022-09-09T08:58:48;21.20;;;19.50;;
57319;SDS011;43158;51.026;18.190;2022-09-09T09:01:32;22.10;;;20.30;;
57319;SDS011;43158;51.026;18.190;2022-09-09T09:07:04;20.80;;;19.10;;
57319;SDS011;43158;51.026;18.190;2022-09-09T09:12:38;20.10;;;18.50;;
57319;SDS011;43158;51.026;18.190;2022-09-09T09:15:14;18.40;;;16.40;;
57319;SDS011;43158;51.026;18.190;2022-09-09T09:17:44;25.20;;;22.80;;
57319;SDS011;43158;51.026;18.190;2022-09-09T09:20:12;19.50;;;18.00;;
57319;SDS011;43158;51.026;18.190;2022-09-09T09:25:20;18.30;;;16.60;;
57319;SDS011;43158;51.026;18.190;2022-09-09T09:28:03;22.90;;;20.80;;
57319;SDS011;43158;51.026;18.190;2022-09-09T09:30:50;25.20;;;22.90;;
57319;SDS011;43158;51.026;18.190;2022-09-09T09:33:21;23.30;;;20.90;;
57319;SDS011;43158;51.026;18.190;2022-09-09T09:35:53;19.00;;;17.20;;
57319;SDS011;43158;51.026;18.190;2022-09-09T09:38:23;18.70;;;17.00;;
57319;SDS011;43158;51.026;18.190;2022-09-09T09:40:54;18.20;;;16.60;;
57319;SDS011;43158;51.026;18.190;2022-09-09T09:43:24;18.40;;;17.00;;
57319;SDS011;43158;51.026;18.190;2022-09-09T09:45:52;26.20;;;21.00;;
57319;SDS011;43158;51.026;18.190;2022-09-09T09:48:19;18.20;;;16.60;;
57319;SDS011;43158;51.026;18.190;2022-09-09T09:50:47;21.30;;;19.40;;
57319;SDS011;43158;51.026;18.190;2022-09-09T09:53:22;22.50;;;20.60;;
57319;SDS011;43158;51.026;18.190;2022-09-09T09:55:55;16.60;;;15.30;;
57319;SDS011;43158;51.026;18.190;2022-09-09T09:58:25;19.80;;;18.00;;
57319;SDS011;43158;51.026;18.190;2022-09-09T10:03:25;19.70;;;18.00;;
57319;SDS011;43158;51.026;18.190;2022-09-09T10:06:03;18.50;;;16.90;;
57319;SDS011;43158;51.026;18.190;2022-09-09T10:08:33;19.20;;;17.40;;
57319;SDS011;43158;51.026;18.190;2022-09-09T10:19:35;17.00;;;15.40;;
57319;SDS011;43158;51.026;18.190;2022-09-09T10:25:04;14.10;;;13.00;;
57319;SDS011;43158;51.026;18.190;2022-09-09T10:30:33;15.40;;;14.10;;
57319;SDS011;43158;51.026;18.190;2022-09-09T10:33:32;14.90;;;13.70;;
57319;SDS011;43158;51.026;18.190;2022-09-09T10:36:14;17.10;;;15.60;;
57319;SDS011;43158;51.026;18.190;2022-09-09T10:38:52;14.80;;;13.60;;
57319;SDS011;43158;51.026;18.190;2022-09-09T10:44:27;17.00;;;14.40;;
57319;SDS011;43158;51.026;18.190;2022-09-09T10:55:16;12.10;;;11.00;;
57319;SDS011;43158;51.026;18.190;2022-09-09T10:57:50;16.70;;;15.30;;
57319;SDS011;43158;51.026;18.190;2022-09-09T11:00:19;14.20;;;12.50;;
57319;SDS011;43158;51.026;18.190;2022-09-09T11:02:55;10.20;;;9.30;;
57319;SDS011;43158;51.026;18.190;2022-09-09T11:05:31;10.70;;;9.70;;
57319;SDS011;43158;51.026;18.190;2022-09-09T11:13:17;12.30;;;11.50;;
57319;SDS011;43158;51.026;18.190;2022-09-09T11:18:39;11.30;;;10.40;;
57319;SDS011;43158;51.026;18.190;2022-09-09T11:21:09;10.50;;;9.70;;
57319;SDS011;43158;51.026;18.190;2022-09-09T11:23:44;10.50;;;9.50;;
57319;SDS011;43158;51.026;18.190;2022-09-09T11:26:21;12.10;;;11.10;;
57319;SDS011;43158;51.026;18.190;2022-09-09T11:29:08;9.80;;;9.00;;
57319;SDS011;43158;51.026;18.190;2022-09-09T11:37:08;9.60;;;8.90;;
57319;SDS011;43158;51.026;18.190;2022-09-09T11:39:51;9.30;;;8.50;;
57319;SDS011;43158;51.026;18.190;2022-09-09T11:42:33;9.90;;;8.90;;
57319;SDS011;43158;51.026;18.190;2022-09-09T11:45:09;10.70;;;9.90;;
57319;SDS011;43158;51.026;18.190;2022-09-09T11:47:37;9.20;;;8.30;;
57319;SDS011;43158;51.026;18.190;2022-09-09T11:50:11;8.40;;;7.80;;
57319;SDS011;43158;51.026;18.190;2022-09-09T11:56:02;9.80;;;8.90;;
57319;SDS011;43158;51.026;18.190;2022-09-09T11:58:42;9.50;;;8.90;;
57319;SDS011;43158;51.026;18.190;2022-09-09T12:01:14;9.90;;;8.90;;
57319;SDS011;43158;51.026;18.190;2022-09-09T12:03:51;10.00;;;9.20;;
57319;SDS011;43158;51.026;18.190;2022-09-09T12:06:33;10.10;;;9.40;;
57319;SDS011;43158;51.026;18.190;2022-09-09T12:09:27;10.40;;;9.60;;
57319;SDS011;43158;51.026;18.190;2022-09-09T12:12:32;9.90;;;9.00;;
57319;SDS011;43158;51.026;18.190;2022-09-09T12:17:28;11.20;;;10.40;;
57319;SDS011;43158;51.026;18.190;2022-09-09T12:29:12;9.00;;;8.40;;
57319;SDS011;43158;51.026;18.190;2022-09-09T12:34:59;8.50;;;8.00;;
57319;SDS011;43158;51.026;18.190;2022-09-09T12:37:37;8.20;;;7.60;;
57319;SDS011;43158;51.026;18.190;2022-09-09T12:40:16;9.00;;;8.20;;
57319;SDS011;43158;51.026;18.190;2022-09-09T12:42:44;10.10;;;9.20;;
57319;SDS011;43158;51.026;18.190;2022-09-09T12:45:20;8.60;;;7.80;;
57319;SDS011;43158;51.026;18.190;2022-09-09T12:47:54;7.00;;;6.50;;
57319;SDS011;43158;51.026;18.190;2022-09-09T12:50:27;7.80;;;7.40;;
57319;SDS011;43158;51.026;18.190;2022-09-09T12:52:56;6.10;;;5.70;;
57319;SDS011;43158;51.026;18.190;2022-09-09T12:55:27;7.60;;;7.10;;
57319;SDS011;43158;51.026;18.190;2022-09-09T12:57:55;8.50;;;7.40;;
57319;SDS011;43158;51.026;18.190;2022-09-09T13:00:23;6.20;;;5.80;;
57319;SDS011;43158;51.026;18.190;2022-09-09T13:02:52;6.00;;;5.60;;
57319;SDS011;43158;51.026;18.190;2022-09-09T13:05:23;5.70;;;5.10;;
57319;SDS011;43158;51.026;18.190;2022-09-09T13:08:05;4.40;;;4.20;;
57319;SDS011;43158;51.026;18.190;2022-09-09T13:10:39;4.50;;;3.20;;
57319;SDS011;43158;51.026;18.190;2022-09-09T13:13:16;3.80;;;3.60;;
57319;SDS011;43158;51.026;18.190;2022-09-09T13:15:53;3.80;;;3.50;;
57319;SDS011;43158;51.026;18.190;2022-09-09T13:18:23;4.40;;;4.10;;
57319;SDS011;43158;51.026;18.190;2022-09-09T13:20:51;7.70;;;7.00;;
57319;SDS011;43158;51.026;18.190;2022-09-09T13:23:18;5.10;;;4.30;;
57319;SDS011;43158;51.026;18.190;2022-09-09T13:25:57;4.90;;;4.60;;
57319;SDS011;43158;51.026;18.190;2022-09-09T13:28:26;3.60;;;3.30;;
57319;SDS011;43158;51.026;18.190;2022-09-09T13:31:01;2.00;;;1.90;;
57319;SDS011;43158;51.026;18.190;2022-09-09T13:33:34;1.70;;;1.00;;
57319;SDS011;43158;51.026;18.190;2022-09-09T13:36:03;8.90;;;2.10;;
57319;SDS011;43158;51.026;18.190;2022-09-09T13:38:40;3.00;;;2.20;;
57319;SDS011;43158;51.026;18.190;2022-09-09T13:41:35;2.70;;;1.80;;
57319;SDS011;43158;51.026;18.190;2022-09-09T13:44:03;2.80;;;2.10;;
57319;SDS011;43158;51.026;18.190;2022-09-09T13:46:33;2.00;;;1.10;;
57319;SDS011;43158;51.026;18.190;2022-09-09T13:51:44;2.00;;;1.30;;
57319;SDS011;43158;51.026;18.190;2022-09-09T13:54:13;1.00;;;0.90;;
57319;SDS011;43158;51.026;18.190;2022-09-09T13:56:45;1.30;;;1.20;;
57319;SDS011;43158;51.026;18.190;2022-09-09T13:59:16;1.20;;;1.10;;
57319;SDS011;43158;51.026;18.190;2022-09-09T14:01:47;1.20;;;1.10;;
57319;SDS011;43158;51.026;18.190;2022-09-09T14:04:18;1.30;;;1.00;;
57319;SDS011;43158;51.026;18.190;2022-09-09T14:06:49;1.20;;;0.90;;
57319;SDS011;43158;51.026;18.190;2022-09-09T14:09:18;1.10;;;0.80;;
57319;SDS011;43158;51.026;18.190;2022-09-09T14:11:45;1.50;;;1.40;;
57319;SDS011;43158;51.026;18.190;2022-09-09T14:14:12;0.90;;;0.80;;
57319;SDS011;43158;51.026;18.190;2022-09-09T14:16:40;1.40;;;0.80;;
57319;SDS011;43158;51.026;18.190;2022-09-09T14:19:08;3.10;;;0.90;;
57319;SDS011;43158;51.026;18.190;2022-09-09T14:21:35;1.60;;;0.90;;
57319;SDS011;43158;51.026;18.190;2022-09-09T14:24:02;1.20;;;0.80;;
57319;SDS011;43158;51.026;18.190;2022-09-09T14:26:28;1.50;;;0.70;;
57319;SDS011;43158;51.026;18.190;2022-09-09T14:28:55;1.30;;;0.80;;
57319;SDS011;43158;51.026;18.190;2022-09-09T14:31:23;2.90;;;1.10;;
57319;SDS011;43158;51.026;18.190;2022-09-09T14:33:56;3.60;;;0.80;;
57319;SDS011;43158;51.026;18.190;2022-09-09T14:36:22;3.80;;;0.80;;
57319;SDS011;43158;51.026;18.190;2022-09-09T14:38:49;1.10;;;1.00;;
57319;SDS011;43158;51.026;18.190;2022-09-09T14:41:18;2.40;;;0.90;;
57319;SDS011;43158;51.026;18.190;2022-09-09T14:43:45;0.80;;;0.70;;
57319;SDS011;43158;51.026;18.190;2022-09-09T14:46:13;1.00;;;0.90;;
57319;SDS011;43158;51.026;18.190;2022-09-09T14:48:42;3.00;;;1.10;;
57319;SDS011;43158;51.026;18.190;2022-09-09T14:51:10;1.00;;;0.70;;
57319;SDS011;43158;51.026;18.190;2022-09-09T14:53:41;1.30;;;0.90;;
57319;SDS011;43158;51.026;18.190;2022-09-09T14:56:10;2.50;;;0.90;;
57319;SDS011;43158;51.026;18.190;2022-09-09T14:58:37;1.00;;;0.90;;
57319;SDS011;43158;51.026;18.190;2022-09-09T15:01:08;1.60;;;0.90;;
57319;SDS011;43158;51.026;18.190;2022-09-09T15:03:36;1.10;;;1.00;;
57319;SDS011;43158;51.026;18.190;2022-09-09T15:06:10;2.40;;;0.90;;
57319;SDS011;43158;51.026;18.190;2022-09-09T15:08:39;1.00;;;0.90;;
57319;SDS011;43158;51.026;18.190;2022-09-09T15:11:07;3.00;;;1.40;;
57319;SDS011;43158;51.026;18.190;2022-09-09T15:13:34;1.40;;;0.80;;
57319;SDS011;43158;51.026;18.190;2022-09-09T15:16:05;3.60;;;1.00;;
57319;SDS011;43158;51.026;18.190;2022-09-09T15:18:34;4.30;;;1.50;;
57319;SDS011;43158;51.026;18.190;2022-09-09T15:21:04;2.40;;;0.90;;
57319;SDS011;43158;51.026;18.190;2022-09-09T15:23:32;1.30;;;0.90;;
57319;SDS011;43158;51.026;18.190;2022-09-09T15:26:00;0.70;;;0.70;;
57319;SDS011;43158;51.026;18.190;2022-09-09T15:28:26;2.00;;;0.90;;
57319;SDS011;43158;51.026;18.190;2022-09-09T15:30:53;1.40;;;1.00;;
57319;SDS011;43158;51.026;18.190;2022-09-09T15:33:21;2.00;;;1.10;;
57319;SDS011;43158;51.026;18.190;2022-09-09T15:35:48;0.90;;;0.80;;
57319;SDS011;43158;51.026;18.190;2022-09-09T15:38:15;1.80;;;1.20;;
57319;SDS011;43158;51.026;18.190;2022-09-09T15:40:43;3.40;;;1.30;;
57319;SDS011;43158;51.026;18.190;2022-09-09T15:43:09;2.50;;;1.00;;
57319;SDS011;43158;51.026;18.190;2022-09-09T15:45:40;2.90;;;1.00;;
57319;SDS011;43158;51.026;18.190;2022-09-09T15:48:06;2.60;;;1.10;;
57319;SDS011;43158;51.026;18.190;2022-09-09T15:50:32;3.30;;;1.00;;
57319;SDS011;43158;51.026;18.190;2022-09-09T15:52:59;1.50;;;1.10;;
57319;SDS011;43158;51.026;18.190;2022-09-09T15:55:25;1.50;;;1.00;;
57319;SDS011;43158;51.026;18.190;2022-09-09T15:57:52;2.60;;;1.30;;
57319;SDS011;43158;51.026;18.190;2022-09-09T16:00:18;3.10;;;1.50;;
57319;SDS011;43158;51.026;18.190;2022-09-09T16:05:18;2.10;;;1.40;;
57319;SDS011;43158;51.026;18.190;2022-09-09T16:07:44;1.80;;;1.70;;
57319;SDS011;43158;51.026;18.190;2022-09-09T16:10:12;1.50;;;1.30;;
57319;SDS011;43158;51.026;18.190;2022-09-09T16:12:39;3.40;;;1.40;;
57319;SDS011;43158;51.026;18.190;2022-09-09T16:15:05;1.70;;;1.40;;
57319;SDS011;43158;51.026;18.190;2022-09-09T16:17:33;1.30;;;1.20;;
57319;SDS011;43158;51.026;18.190;2022-09-09T16:20:03;2.70;;;1.40;;
57319;SDS011;43158;51.026;18.190;2022-09-09T16:22:32;2.00;;;1.50;;
57319;SDS011;43158;51.026;18.190;2022-09-09T16:24:58;3.40;;;1.80;;
57319;SDS011;43158;51.026;18.190;2022-09-09T16:27:25;2.20;;;1.40;;
57319;SDS011;43158;51.026;18.190;2022-09-09T16:29:52;3.40;;;1.60;;
57319;SDS011;43158;51.026;18.190;2022-09-09T16:32:19;1.80;;;1.50;;
57319;SDS011;43158;51.026;18.190;2022-09-09T16:34:46;5.40;;;2.70;;
57319;SDS011;43158;51.026;18.190;2022-09-09T16:37:13;6.00;;;3.00;;
57319;SDS011;43158;51.026;18.190;2022-09-09T16:39:40;3.00;;;2.70;;
57319;SDS011;43158;51.026;18.190;2022-09-09T16:42:06;5.60;;;5.10;;
57319;SDS011;43158;51.026;18.190;2022-09-09T16:44:33;5.10;;;4.50;;